sensor_id;sensor_type;location;lat;lon;timestamp;P1;durP1;ratioP1;P2;durP2;ratioP2
84115;SDS011;74211;52.234;9.860;2024-03-08T00:01:01;34.33;;;15.45;;
84115;SDS011;74211;52.234;9.860;2024-03-08T00:03:33;31.65;;;16.05;;
84115;SDS011;74211;52.234;9.860;2024-03-08T00:06:04;26.35;;;14.02;;
84115;SDS011;74211;52.234;9.860;2024-03-08T00:08:34;31.65;;;15.80;;
84115;SDS011;74211;52.234;9.860;2024-03-08T00:11:05;31.35;;;14.73;;
84115;SDS011;74211;52.234;9.860;2024-03-08T00:13:38;32.65;;;16.17;;
84115;SDS011;74211;52.234;9.860;2024-03-08T00:16:12;34.00;;;15.05;;
84115;SDS011;74211;52.234;9.860;2024-03-08T00:18:41;35.47;;;16.52;;
84115;SDS011;74211;52.234;9.860;2024-03-08T00:21:12;32.90;;;16.10;;
84115;SDS011;74211;52.234;9.860;2024-03-08T00:23:42;30.73;;;16.15;;
84115;SDS011;74211;52.234;9.860;2024-03-08T00:26:12;41.83;;;19.08;;
84115;SDS011;74211;52.234;9.860;2024-03-08T00:28:45;47.50;;;19.25;;
84115;SDS011;74211;52.234;9.860;2024-03-08T00:31:15;41.88;;;19.10;;
84115;SDS011;74211;52.234;9.860;2024-03-08T00:33:45;53.40;;;21.65;;
84115;SDS011;74211;52.234;9.860;2024-03-08T00:36:15;35.88;;;17.45;;
84115;SDS011;74211;52.234;9.860;2024-03-08T00:38:47;35.08;;;17.65;;
84115;SDS011;74211;52.234;9.860;2024-03-08T00:41:16;40.88;;;18.23;;
84115;SDS011;74211;52.234;9.860;2024-03-08T00:43:49;39.53;;;17.17;;
84115;SDS011;74211;52.234;9.860;2024-03-08T00:46:19;33.88;;;16.33;;
84115;SDS011;74211;52.234;9.860;2024-03-08T00:48:49;42.20;;;19.42;;
84115;SDS011;74211;52.234;9.860;2024-03-08T00:51:19;32.25;;;16.10;;
84115;SDS011;74211;52.234;9.860;2024-03-08T00:53:49;37.80;;;17.42;;
84115;SDS011;74211;52.234;9.860;2024-03-08T00:56:19;35.60;;;17.35;;
84115;SDS011;74211;52.234;9.860;2024-03-08T00:58:54;36.83;;;17.13;;
84115;SDS011;74211;52.234;9.860;2024-03-08T01:01:24;38.88;;;16.98;;
84115;SDS011;74211;52.234;9.860;2024-03-08T01:03:54;37.45;;;17.05;;
84115;SDS011;74211;52.234;9.860;2024-03-08T01:06:25;38.17;;;18.52;;
84115;SDS011;74211;52.234;9.860;2024-03-08T01:08:55;37.83;;;17.70;;
84115;SDS011;74211;52.234;9.860;2024-03-08T01:11:25;37.25;;;16.88;;
84115;SDS011;74211;52.234;9.860;2024-03-08T01:13:57;37.35;;;18.00;;
84115;SDS011;74211;52.234;9.860;2024-03-08T01:16:28;38.28;;;17.00;;
84115;SDS011;74211;52.234;9.860;2024-03-08T01:19:00;38.47;;;17.25;;
84115;SDS011;74211;52.234;9.860;2024-03-08T01:21:30;37.90;;;18.52;;
84115;SDS011;74211;52.234;9.860;2024-03-08T01:24:00;34.65;;;15.68;;
84115;SDS011;74211;52.234;9.860;2024-03-08T01:26:30;37.08;;;16.17;;
84115;SDS011;74211;52.234;9.860;2024-03-08T01:29:03;38.78;;;16.08;;
84115;SDS011;74211;52.234;9.860;2024-03-08T01:31:35;35.40;;;16.58;;
84115;SDS011;74211;52.234;9.860;2024-03-08T01:34:05;34.58;;;17.05;;
84115;SDS011;74211;52.234;9.860;2024-03-08T01:36:35;32.95;;;14.75;;
84115;SDS011;74211;52.234;9.860;2024-03-08T01:39:06;35.78;;;17.48;;
84115;SDS011;74211;52.234;9.860;2024-03-08T01:41:36;35.53;;;17.30;;
84115;SDS011;74211;52.234;9.860;2024-03-08T01:44:09;33.30;;;16.65;;
84115;SDS011;74211;52.234;9.860;2024-03-08T01:46:42;36.35;;;16.85;;
84115;SDS011;74211;52.234;9.860;2024-03-08T01:49:14;37.80;;;15.88;;
84115;SDS011;74211;52.234;9.860;2024-03-08T01:51:45;31.30;;;16.80;;
84115;SDS011;74211;52.234;9.860;2024-03-08T01:54:15;37.38;;;17.00;;
84115;SDS011;74211;52.234;9.860;2024-03-08T01:56:47;35.55;;;16.60;;
84115;SDS011;74211;52.234;9.860;2024-03-08T01:59:22;34.72;;;16.17;;
84115;SDS011;74211;52.234;9.860;2024-03-08T02:01:54;46.25;;;17.02;;
84115;SDS011;74211;52.234;9.860;2024-03-08T02:04:25;34.28;;;15.25;;
84115;SDS011;74211;52.234;9.860;2024-03-08T02:06:57;36.92;;;15.63;;
84115;SDS011;74211;52.234;9.860;2024-03-08T02:09:27;38.38;;;16.15;;
84115;SDS011;74211;52.234;9.860;2024-03-08T02:11:57;32.25;;;16.33;;
84115;SDS011;74211;52.234;9.860;2024-03-08T02:14:35;37.55;;;16.35;;
84115;SDS011;74211;52.234;9.860;2024-03-08T02:17:07;38.88;;;17.52;;
84115;SDS011;74211;52.234;9.860;2024-03-08T02:19:34;36.35;;;14.27;;
84115;SDS011;74211;52.234;9.860;2024-03-08T02:22:07;29.15;;;15.02;;
84115;SDS011;74211;52.234;9.860;2024-03-08T02:24:36;40.25;;;17.45;;
84115;SDS011;74211;52.234;9.860;2024-03-08T02:27:07;38.13;;;16.90;;
84115;SDS011;74211;52.234;9.860;2024-03-08T02:29:38;36.38;;;16.73;;
84115;SDS011;74211;52.234;9.860;2024-03-08T02:32:11;35.83;;;16.65;;
84115;SDS011;74211;52.234;9.860;2024-03-08T02:34:41;35.38;;;15.88;;
84115;SDS011;74211;52.234;9.860;2024-03-08T02:37:13;39.38;;;16.85;;
84115;SDS011;74211;52.234;9.860;2024-03-08T02:42:13;39.78;;;16.42;;
84115;SDS011;74211;52.234;9.860;2024-03-08T02:44:44;37.47;;;16.98;;
84115;SDS011;74211;52.234;9.860;2024-03-08T02:47:14;39.33;;;16.98;;
84115;SDS011;74211;52.234;9.860;2024-03-08T02:49:44;35.30;;;16.30;;
84115;SDS011;74211;52.234;9.860;2024-03-08T02:52:16;37.95;;;17.02;;
84115;SDS011;74211;52.234;9.860;2024-03-08T02:54:48;33.13;;;16.45;;
84115;SDS011;74211;52.234;9.860;2024-03-08T02:57:18;38.40;;;17.60;;
84115;SDS011;74211;52.234;9.860;2024-03-08T02:59:48;37.72;;;16.10;;
84115;SDS011;74211;52.234;9.860;2024-03-08T03:02:18;35.58;;;15.68;;
84115;SDS011;74211;52.234;9.860;2024-03-08T03:04:49;36.85;;;17.58;;
84115;SDS011;74211;52.234;9.860;2024-03-08T03:07:22;39.88;;;17.73;;
84115;SDS011;74211;52.234;9.860;2024-03-08T03:09:54;34.13;;;17.83;;
84115;SDS011;74211;52.234;9.860;2024-03-08T03:12:24;34.17;;;17.23;;
84115;SDS011;74211;52.234;9.860;2024-03-08T03:14:55;35.75;;;17.15;;
84115;SDS011;74211;52.234;9.860;2024-03-08T03:17:26;40.85;;;18.33;;
84115;SDS011;74211;52.234;9.860;2024-03-08T03:19:56;39.95;;;16.60;;
84115;SDS011;74211;52.234;9.860;2024-03-08T03:22:32;38.72;;;15.73;;
84115;SDS011;74211;52.234;9.860;2024-03-08T03:25:02;41.22;;;17.40;;
84115;SDS011;74211;52.234;9.860;2024-03-08T03:27:33;38.00;;;16.60;;
84115;SDS011;74211;52.234;9.860;2024-03-08T03:30:04;38.03;;;16.73;;
84115;SDS011;74211;52.234;9.860;2024-03-08T03:32:49;38.20;;;15.95;;
84115;SDS011;74211;52.234;9.860;2024-03-08T03:35:21;34.30;;;14.80;;
84115;SDS011;74211;52.234;9.860;2024-03-08T03:37:54;36.80;;;17.02;;
84115;SDS011;74211;52.234;9.860;2024-03-08T03:40:37;36.00;;;16.50;;
84115;SDS011;74211;52.234;9.860;2024-03-08T03:43:08;41.97;;;18.23;;
84115;SDS011;74211;52.234;9.860;2024-03-08T03:45:39;43.70;;;17.92;;
84115;SDS011;74211;52.234;9.860;2024-03-08T03:48:10;43.95;;;17.45;;
84115;SDS011;74211;52.234;9.860;2024-03-08T03:50:40;40.47;;;16.17;;
84115;SDS011;74211;52.234;9.860;2024-03-08T03:53:13;41.45;;;17.10;;
84115;SDS011;74211;52.234;9.860;2024-03-08T03:58:13;39.65;;;18.02;;
84115;SDS011;74211;52.234;9.860;2024-03-08T04:00:49;44.20;;;18.73;;
84115;SDS011;74211;52.234;9.860;2024-03-08T04:03:19;41.70;;;18.50;;
84115;SDS011;74211;52.234;9.860;2024-03-08T04:05:49;42.65;;;18.13;;
84115;SDS011;74211;52.234;9.860;2024-03-08T04:08:22;39.67;;;16.95;;
84115;SDS011;74211;52.234;9.860;2024-03-08T04:10:52;47.00;;;18.33;;
84115;SDS011;74211;52.234;9.860;2024-03-08T04:13:22;43.40;;;18.33;;
84115;SDS011;74211;52.234;9.860;2024-03-08T04:15:52;46.05;;;18.17;;
84115;SDS011;74211;52.234;9.860;2024-03-08T04:18:22;44.33;;;19.35;;
84115;SDS011;74211;52.234;9.860;2024-03-08T04:20:52;44.10;;;18.20;;
84115;SDS011;74211;52.234;9.860;2024-03-08T04:23:25;44.08;;;19.05;;
84115;SDS011;74211;52.234;9.860;2024-03-08T04:25:55;45.35;;;19.90;;
84115;SDS011;74211;52.234;9.860;2024-03-08T04:28:25;42.13;;;19.05;;
84115;SDS011;74211;52.234;9.860;2024-03-08T04:30:55;41.95;;;18.50;;
84115;SDS011;74211;52.234;9.860;2024-03-08T04:33:27;41.75;;;18.20;;
84115;SDS011;74211;52.234;9.860;2024-03-08T04:35:57;45.33;;;18.55;;
84115;SDS011;74211;52.234;9.860;2024-03-08T04:38:30;38.75;;;18.10;;
84115;SDS011;74211;52.234;9.860;2024-03-08T04:41:01;51.05;;;19.58;;
84115;SDS011;74211;52.234;9.860;2024-03-08T04:43:31;50.90;;;20.63;;
84115;SDS011;74211;52.234;9.860;2024-03-08T04:46:01;46.50;;;19.23;;
84115;SDS011;74211;52.234;9.860;2024-03-08T04:48:32;48.03;;;20.30;;
84115;SDS011;74211;52.234;9.860;2024-03-08T04:51:03;43.85;;;19.63;;
84115;SDS011;74211;52.234;9.860;2024-03-08T04:53:36;41.25;;;19.05;;
84115;SDS011;74211;52.234;9.860;2024-03-08T04:58:37;41.70;;;18.20;;
84115;SDS011;74211;52.234;9.860;2024-03-08T05:01:07;44.85;;;18.88;;
84115;SDS011;74211;52.234;9.860;2024-03-08T05:03:37;48.35;;;17.63;;
84115;SDS011;74211;52.234;9.860;2024-03-08T05:06:07;49.35;;;20.67;;
84115;SDS011;74211;52.234;9.860;2024-03-08T05:08:40;38.42;;;18.08;;
84115;SDS011;74211;52.234;9.860;2024-03-08T05:11:10;43.70;;;18.75;;
84115;SDS011;74211;52.234;9.860;2024-03-08T05:13:41;38.67;;;17.88;;
84115;SDS011;74211;52.234;9.860;2024-03-08T05:16:11;34.88;;;17.92;;
84115;SDS011;74211;52.234;9.860;2024-03-08T05:18:42;36.20;;;18.38;;
84115;SDS011;74211;52.234;9.860;2024-03-08T05:21:14;43.00;;;19.67;;
84115;SDS011;74211;52.234;9.860;2024-03-08T05:26:20;39.58;;;16.83;;
84115;SDS011;74211;52.234;9.860;2024-03-08T05:28:50;41.60;;;18.55;;
84115;SDS011;74211;52.234;9.860;2024-03-08T05:31:20;41.40;;;18.70;;
84115;SDS011;74211;52.234;9.860;2024-03-08T05:33:51;40.65;;;19.27;;
84115;SDS011;74211;52.234;9.860;2024-03-08T05:36:22;42.20;;;18.55;;
84115;SDS011;74211;52.234;9.860;2024-03-08T05:38:55;43.33;;;20.00;;
84115;SDS011;74211;52.234;9.860;2024-03-08T05:41:25;38.45;;;17.65;;
84115;SDS011;74211;52.234;9.860;2024-03-08T05:43:55;36.72;;;17.08;;
84115;SDS011;74211;52.234;9.860;2024-03-08T05:46:25;34.47;;;16.48;;
84115;SDS011;74211;52.234;9.860;2024-03-08T05:48:55;40.15;;;19.15;;
84115;SDS011;74211;52.234;9.860;2024-03-08T05:51:25;47.83;;;20.17;;
84115;SDS011;74211;52.234;9.860;2024-03-08T05:53:59;46.72;;;20.42;;
84115;SDS011;74211;52.234;9.860;2024-03-08T05:59:00;37.70;;;16.60;;
84115;SDS011;74211;52.234;9.860;2024-03-08T06:01:30;41.10;;;17.88;;
84115;SDS011;74211;52.234;9.860;2024-03-08T06:04:03;29.58;;;15.95;;
84115;SDS011;74211;52.234;9.860;2024-03-08T06:06:34;43.42;;;20.20;;
84115;SDS011;74211;52.234;9.860;2024-03-08T06:09:07;36.70;;;15.60;;
84115;SDS011;74211;52.234;9.860;2024-03-08T06:11:42;38.13;;;17.02;;
84115;SDS011;74211;52.234;9.860;2024-03-08T06:14:13;37.08;;;18.48;;
84115;SDS011;74211;52.234;9.860;2024-03-08T06:16:45;44.85;;;19.25;;
84115;SDS011;74211;52.234;9.860;2024-03-08T06:19:17;40.05;;;20.27;;
84115;SDS011;74211;52.234;9.860;2024-03-08T06:21:47;50.72;;;21.55;;
84115;SDS011;74211;52.234;9.860;2024-03-08T06:24:20;40.35;;;20.25;;
84115;SDS011;74211;52.234;9.860;2024-03-08T06:26:49;48.60;;;20.75;;
84115;SDS011;74211;52.234;9.860;2024-03-08T06:29:20;47.00;;;20.70;;
84115;SDS011;74211;52.234;9.860;2024-03-08T06:31:50;39.90;;;18.90;;
84115;SDS011;74211;52.234;9.860;2024-03-08T06:34:23;40.28;;;18.38;;
84115;SDS011;74211;52.234;9.860;2024-03-08T06:36:52;45.70;;;20.40;;
84115;SDS011;74211;52.234;9.860;2024-03-08T06:39:30;44.90;;;20.92;;
84115;SDS011;74211;52.234;9.860;2024-03-08T06:42:02;43.80;;;20.00;;
84115;SDS011;74211;52.234;9.860;2024-03-08T06:44:32;48.33;;;20.40;;
84115;SDS011;74211;52.234;9.860;2024-03-08T06:47:02;43.88;;;19.60;;
84115;SDS011;74211;52.234;9.860;2024-03-08T06:49:33;47.72;;;21.73;;
84115;SDS011;74211;52.234;9.860;2024-03-08T06:52:03;44.35;;;19.33;;
84115;SDS011;74211;52.234;9.860;2024-03-08T06:54:38;39.03;;;18.45;;
84115;SDS011;74211;52.234;9.860;2024-03-08T06:57:08;32.85;;;16.92;;
84115;SDS011;74211;52.234;9.860;2024-03-08T06:59:38;42.47;;;19.67;;
84115;SDS011;74211;52.234;9.860;2024-03-08T07:02:08;46.92;;;21.30;;
84115;SDS011;74211;52.234;9.860;2024-03-08T07:04:38;34.13;;;17.02;;
84115;SDS011;74211;52.234;9.860;2024-03-08T07:07:08;41.90;;;19.05;;
84115;SDS011;74211;52.234;9.860;2024-03-08T07:09:44;42.78;;;20.42;;
84115;SDS011;74211;52.234;9.860;2024-03-08T07:12:16;44.97;;;19.25;;
84115;SDS011;74211;52.234;9.860;2024-03-08T07:14:47;41.85;;;18.80;;
84115;SDS011;74211;52.234;9.860;2024-03-08T07:17:17;43.90;;;19.80;;
84115;SDS011;74211;52.234;9.860;2024-03-08T07:19:47;45.90;;;21.27;;
84115;SDS011;74211;52.234;9.860;2024-03-08T07:22:17;44.25;;;19.75;;
84115;SDS011;74211;52.234;9.860;2024-03-08T07:24:51;48.15;;;21.92;;
84115;SDS011;74211;52.234;9.860;2024-03-08T07:27:44;42.20;;;18.48;;
84115;SDS011;74211;52.234;9.860;2024-03-08T07:30:14;41.28;;;19.90;;
84115;SDS011;74211;52.234;9.860;2024-03-08T07:33:07;41.05;;;20.48;;
84115;SDS011;74211;52.234;9.860;2024-03-08T07:35:39;44.63;;;21.95;;
84115;SDS011;74211;52.234;9.860;2024-03-08T07:38:11;41.55;;;20.42;;
84115;SDS011;74211;52.234;9.860;2024-03-08T07:40:44;40.00;;;18.90;;
84115;SDS011;74211;52.234;9.860;2024-03-08T07:43:15;36.83;;;19.23;;
84115;SDS011;74211;52.234;9.860;2024-03-08T07:45:44;41.10;;;20.73;;
84115;SDS011;74211;52.234;9.860;2024-03-08T07:48:14;39.05;;;18.13;;
84115;SDS011;74211;52.234;9.860;2024-03-08T07:50:44;34.03;;;15.60;;
84115;SDS011;74211;52.234;9.860;2024-03-08T07:53:17;35.22;;;20.00;;
84115;SDS011;74211;52.234;9.860;2024-03-08T07:55:49;36.65;;;18.73;;
84115;SDS011;74211;52.234;9.860;2024-03-08T07:58:20;44.10;;;21.00;;
84115;SDS011;74211;52.234;9.860;2024-03-08T08:00:50;35.70;;;18.77;;
84115;SDS011;74211;52.234;9.860;2024-03-08T08:03:22;42.22;;;21.95;;
84115;SDS011;74211;52.234;9.860;2024-03-08T08:05:52;41.17;;;20.30;;
84115;SDS011;74211;52.234;9.860;2024-03-08T08:08:22;39.83;;;19.63;;
84115;SDS011;74211;52.234;9.860;2024-03-08T08:10:55;37.58;;;19.40;;
84115;SDS011;74211;52.234;9.860;2024-03-08T08:13:26;37.55;;;22.10;;
84115;SDS011;74211;52.234;9.860;2024-03-08T08:15:59;34.95;;;18.45;;
84115;SDS011;74211;52.234;9.860;2024-03-08T08:18:29;38.45;;;19.60;;
84115;SDS011;74211;52.234;9.860;2024-03-08T08:21:00;32.67;;;16.58;;
84115;SDS011;74211;52.234;9.860;2024-03-08T08:23:30;39.58;;;17.60;;
84115;SDS011;74211;52.234;9.860;2024-03-08T08:26:03;43.55;;;19.98;;
84115;SDS011;74211;52.234;9.860;2024-03-08T08:28:34;41.00;;;20.95;;
84115;SDS011;74211;52.234;9.860;2024-03-08T08:31:05;38.33;;;21.00;;
84115;SDS011;74211;52.234;9.860;2024-03-08T08:33:35;31.00;;;17.52;;
84115;SDS011;74211;52.234;9.860;2024-03-08T08:36:07;38.08;;;19.35;;
84115;SDS011;74211;52.234;9.860;2024-03-08T08:38:37;42.28;;;18.90;;
84115;SDS011;74211;52.234;9.860;2024-03-08T08:41:14;36.78;;;19.25;;
84115;SDS011;74211;52.234;9.860;2024-03-08T08:43:48;30.80;;;17.15;;
84115;SDS011;74211;52.234;9.860;2024-03-08T08:46:33;43.30;;;20.38;;
84115;SDS011;74211;52.234;9.860;2024-03-08T08:49:08;37.55;;;18.83;;
84115;SDS011;74211;52.234;9.860;2024-03-08T08:51:41;33.17;;;17.42;;
84115;SDS011;74211;52.234;9.860;2024-03-08T08:54:11;31.80;;;17.98;;
84115;SDS011;74211;52.234;9.860;2024-03-08T08:56:46;34.05;;;19.02;;
84115;SDS011;74211;52.234;9.860;2024-03-08T08:59:17;32.97;;;18.85;;
84115;SDS011;74211;52.234;9.860;2024-03-08T09:01:49;35.75;;;17.25;;
84115;SDS011;74211;52.234;9.860;2024-03-08T09:04:20;38.80;;;18.75;;
84115;SDS011;74211;52.234;9.860;2024-03-08T09:06:51;41.15;;;21.90;;
84115;SDS011;74211;52.234;9.860;2024-03-08T09:09:22;37.45;;;19.95;;
84115;SDS011;74211;52.234;9.860;2024-03-08T09:11:54;37.30;;;19.00;;
84115;SDS011;74211;52.234;9.860;2024-03-08T09:14:24;34.30;;;16.67;;
84115;SDS011;74211;52.234;9.860;2024-03-08T09:16:56;41.13;;;19.65;;
84115;SDS011;74211;52.234;9.860;2024-03-08T09:19:26;36.45;;;19.25;;
84115;SDS011;74211;52.234;9.860;2024-03-08T09:21:56;37.15;;;21.63;;
84115;SDS011;74211;52.234;9.860;2024-03-08T09:24:26;32.67;;;18.73;;
84115;SDS011;74211;52.234;9.860;2024-03-08T09:27:01;26.85;;;13.75;;
84115;SDS011;74211;52.234;9.860;2024-03-08T09:29:36;34.60;;;18.67;;
84115;SDS011;74211;52.234;9.860;2024-03-08T09:32:07;37.30;;;19.80;;
84115;SDS011;74211;52.234;9.860;2024-03-08T09:34:38;43.45;;;21.08;;
84115;SDS011;74211;52.234;9.860;2024-03-08T09:37:08;29.50;;;18.00;;
84115;SDS011;74211;52.234;9.860;2024-03-08T09:39:38;34.63;;;19.35;;
84115;SDS011;74211;52.234;9.860;2024-03-08T09:42:10;31.95;;;16.88;;
84115;SDS011;74211;52.234;9.860;2024-03-08T09:44:43;30.38;;;16.63;;
84115;SDS011;74211;52.234;9.860;2024-03-08T09:47:15;38.45;;;19.55;;
84115;SDS011;74211;52.234;9.860;2024-03-08T09:49:47;31.92;;;18.65;;
84115;SDS011;74211;52.234;9.860;2024-03-08T09:52:17;32.38;;;18.52;;
84115;SDS011;74211;52.234;9.860;2024-03-08T09:54:48;33.15;;;19.58;;
84115;SDS011;74211;52.234;9.860;2024-03-08T09:57:21;26.92;;;15.18;;
84115;SDS011;74211;52.234;9.860;2024-03-08T09:59:51;31.25;;;16.38;;
84115;SDS011;74211;52.234;9.860;2024-03-08T10:02:21;36.22;;;19.63;;
84115;SDS011;74211;52.234;9.860;2024-03-08T10:04:52;33.30;;;17.73;;
84115;SDS011;74211;52.234;9.860;2024-03-08T10:07:22;37.05;;;18.25;;
84115;SDS011;74211;52.234;9.860;2024-03-08T10:09:53;35.58;;;18.33;;
84115;SDS011;74211;52.234;9.860;2024-03-08T10:12:25;33.05;;;18.08;;
84115;SDS011;74211;52.234;9.860;2024-03-08T10:14:55;30.25;;;16.05;;
84115;SDS011;74211;52.234;9.860;2024-03-08T10:17:27;32.53;;;18.30;;
84115;SDS011;74211;52.234;9.860;2024-03-08T10:19:59;30.13;;;16.13;;
84115;SDS011;74211;52.234;9.860;2024-03-08T10:22:31;36.42;;;19.40;;
84115;SDS011;74211;52.234;9.860;2024-03-08T10:25:02;27.08;;;16.52;;
84115;SDS011;74211;52.234;9.860;2024-03-08T10:27:36;34.20;;;17.80;;
84115;SDS011;74211;52.234;9.860;2024-03-08T10:30:08;30.95;;;16.45;;
84115;SDS011;74211;52.234;9.860;2024-03-08T10:32:42;27.30;;;16.08;;
84115;SDS011;74211;52.234;9.860;2024-03-08T10:35:13;29.27;;;18.30;;
84115;SDS011;74211;52.234;9.860;2024-03-08T10:37:44;27.50;;;16.95;;
84115;SDS011;74211;52.234;9.860;2024-03-08T10:40:17;32.88;;;19.55;;
84115;SDS011;74211;52.234;9.860;2024-03-08T10:42:54;25.90;;;15.02;;
84115;SDS011;74211;52.234;9.860;2024-03-08T10:45:34;28.45;;;15.32;;
84115;SDS011;74211;52.234;9.860;2024-03-08T10:48:16;30.45;;;17.63;;
84115;SDS011;74211;52.234;9.860;2024-03-08T10:51:04;28.85;;;17.25;;
84115;SDS011;74211;52.234;9.860;2024-03-08T10:53:35;31.55;;;17.75;;
84115;SDS011;74211;52.234;9.860;2024-03-08T10:56:08;24.35;;;15.93;;
84115;SDS011;74211;52.234;9.860;2024-03-08T10:58:44;38.50;;;22.00;;
84115;SDS011;74211;52.234;9.860;2024-03-08T11:01:15;35.05;;;18.33;;
84115;SDS011;74211;52.234;9.860;2024-03-08T11:03:45;34.45;;;19.92;;
84115;SDS011;74211;52.234;9.860;2024-03-08T11:06:22;28.00;;;17.70;;
84115;SDS011;74211;52.234;9.860;2024-03-08T11:08:58;32.97;;;19.52;;
84115;SDS011;74211;52.234;9.860;2024-03-08T11:11:29;31.05;;;17.25;;
84115;SDS011;74211;52.234;9.860;2024-03-08T11:14:04;29.88;;;18.00;;
84115;SDS011;74211;52.234;9.860;2024-03-08T11:16:37;30.20;;;18.58;;
84115;SDS011;74211;52.234;9.860;2024-03-08T11:19:23;33.33;;;18.25;;
84115;SDS011;74211;52.234;9.860;2024-03-08T11:21:59;34.97;;;21.05;;
84115;SDS011;74211;52.234;9.860;2024-03-08T11:24:37;33.10;;;18.10;;
84115;SDS011;74211;52.234;9.860;2024-03-08T11:27:09;30.67;;;19.67;;
84115;SDS011;74211;52.234;9.860;2024-03-08T11:29:42;28.92;;;17.95;;
84115;SDS011;74211;52.234;9.860;2024-03-08T11:32:12;23.80;;;15.13;;
84115;SDS011;74211;52.234;9.860;2024-03-08T11:34:45;30.35;;;18.90;;
84115;SDS011;74211;52.234;9.860;2024-03-08T11:37:18;29.38;;;16.90;;
84115;SDS011;74211;52.234;9.860;2024-03-08T11:39:52;28.13;;;15.13;;
84115;SDS011;74211;52.234;9.860;2024-03-08T11:42:26;29.05;;;18.13;;
84115;SDS011;74211;52.234;9.860;2024-03-08T11:45:00;25.73;;;15.95;;
84115;SDS011;74211;52.234;9.860;2024-03-08T11:47:30;32.72;;;17.83;;
84115;SDS011;74211;52.234;9.860;2024-03-08T11:50:02;30.30;;;18.15;;
84115;SDS011;74211;52.234;9.860;2024-03-08T11:52:37;24.42;;;14.88;;
84115;SDS011;74211;52.234;9.860;2024-03-08T11:55:07;30.55;;;16.42;;
84115;SDS011;74211;52.234;9.860;2024-03-08T11:57:40;25.67;;;16.58;;
84115;SDS011;74211;52.234;9.860;2024-03-08T12:00:18;28.38;;;17.45;;
84115;SDS011;74211;52.234;9.860;2024-03-08T12:03:02;26.95;;;16.30;;
84115;SDS011;74211;52.234;9.860;2024-03-08T12:05:33;25.40;;;14.93;;
84115;SDS011;74211;52.234;9.860;2024-03-08T12:10:40;28.02;;;16.35;;
84115;SDS011;74211;52.234;9.860;2024-03-08T12:13:10;24.95;;;16.70;;
84115;SDS011;74211;52.234;9.860;2024-03-08T12:15:44;29.20;;;16.75;;
84115;SDS011;74211;52.234;9.860;2024-03-08T12:18:15;27.48;;;16.33;;
84115;SDS011;74211;52.234;9.860;2024-03-08T12:20:45;25.02;;;15.15;;
84115;SDS011;74211;52.234;9.860;2024-03-08T12:23:16;31.55;;;17.90;;
84115;SDS011;74211;52.234;9.860;2024-03-08T12:25:46;26.23;;;17.40;;
84115;SDS011;74211;52.234;9.860;2024-03-08T12:28:18;25.10;;;14.48;;
84115;SDS011;74211;52.234;9.860;2024-03-08T12:30:51;26.85;;;16.63;;
84115;SDS011;74211;52.234;9.860;2024-03-08T12:33:26;32.38;;;18.35;;
84115;SDS011;74211;52.234;9.860;2024-03-08T12:35:56;31.92;;;17.98;;
84115;SDS011;74211;52.234;9.860;2024-03-08T12:38:27;27.15;;;15.77;;
84115;SDS011;74211;52.234;9.860;2024-03-08T12:40:59;23.92;;;16.73;;
84115;SDS011;74211;52.234;9.860;2024-03-08T12:43:30;23.92;;;16.63;;
84115;SDS011;74211;52.234;9.860;2024-03-08T12:46:03;28.90;;;16.30;;
84115;SDS011;74211;52.234;9.860;2024-03-08T12:48:35;27.70;;;15.57;;
84115;SDS011;74211;52.234;9.860;2024-03-08T12:51:07;22.15;;;13.38;;
84115;SDS011;74211;52.234;9.860;2024-03-08T12:53:37;27.98;;;15.27;;
84115;SDS011;74211;52.234;9.860;2024-03-08T12:56:07;30.20;;;17.73;;
84115;SDS011;74211;52.234;9.860;2024-03-08T12:58:37;29.52;;;17.95;;
84115;SDS011;74211;52.234;9.860;2024-03-08T13:01:10;24.40;;;14.00;;
84115;SDS011;74211;52.234;9.860;2024-03-08T13:03:44;33.20;;;18.63;;
84115;SDS011;74211;52.234;9.860;2024-03-08T13:06:16;22.25;;;14.85;;
84115;SDS011;74211;52.234;9.860;2024-03-08T13:16:23;27.80;;;16.35;;
84115;SDS011;74211;52.234;9.860;2024-03-08T13:18:56;25.55;;;16.08;;
84115;SDS011;74211;52.234;9.860;2024-03-08T13:21:26;26.58;;;15.20;;
84115;SDS011;74211;52.234;9.860;2024-03-08T13:23:57;28.25;;;17.27;;
84115;SDS011;74211;52.234;9.860;2024-03-08T13:26:28;25.25;;;17.25;;
84115;SDS011;74211;52.234;9.860;2024-03-08T13:29:00;20.92;;;14.35;;
84115;SDS011;74211;52.234;9.860;2024-03-08T13:31:32;26.73;;;15.55;;
84115;SDS011;74211;52.234;9.860;2024-03-08T13:34:03;24.95;;;15.57;;
84115;SDS011;74211;52.234;9.860;2024-03-08T13:36:34;29.35;;;16.83;;
84115;SDS011;74211;52.234;9.860;2024-03-08T13:39:08;30.65;;;17.73;;
84115;SDS011;74211;52.234;9.860;2024-03-08T13:41:42;29.08;;;17.75;;
84115;SDS011;74211;52.234;9.860;2024-03-08T13:44:12;26.65;;;14.98;;
84115;SDS011;74211;52.234;9.860;2024-03-08T13:46:46;25.23;;;15.55;;
84115;SDS011;74211;52.234;9.860;2024-03-08T13:49:20;24.92;;;16.15;;
84115;SDS011;74211;52.234;9.860;2024-03-08T13:51:50;25.77;;;16.58;;
84115;SDS011;74211;52.234;9.860;2024-03-08T13:54:22;25.38;;;15.00;;
84115;SDS011;74211;52.234;9.860;2024-03-08T13:56:54;27.17;;;16.50;;
84115;SDS011;74211;52.234;9.860;2024-03-08T13:59:24;25.77;;;16.15;;
84115;SDS011;74211;52.234;9.860;2024-03-08T14:01:58;26.42;;;17.35;;
84115;SDS011;74211;52.234;9.860;2024-03-08T14:04:28;25.33;;;14.75;;
84115;SDS011;74211;52.234;9.860;2024-03-08T14:06:58;24.92;;;15.57;;
84115;SDS011;74211;52.234;9.860;2024-03-08T14:09:31;24.45;;;14.98;;
84115;SDS011;74211;52.234;9.860;2024-03-08T14:12:04;24.27;;;15.93;;
84115;SDS011;74211;52.234;9.860;2024-03-08T14:14:35;22.75;;;14.32;;
84115;SDS011;74211;52.234;9.860;2024-03-08T14:17:08;26.38;;;16.02;;
84115;SDS011;74211;52.234;9.860;2024-03-08T14:19:44;23.33;;;15.43;;
84115;SDS011;74211;52.234;9.860;2024-03-08T14:22:15;24.67;;;15.38;;
84115;SDS011;74211;52.234;9.860;2024-03-08T14:24:45;26.33;;;17.27;;
84115;SDS011;74211;52.234;9.860;2024-03-08T14:27:16;24.60;;;15.57;;
84115;SDS011;74211;52.234;9.860;2024-03-08T14:29:46;22.52;;;15.23;;
84115;SDS011;74211;52.234;9.860;2024-03-08T14:32:18;26.75;;;16.52;;
84115;SDS011;74211;52.234;9.860;2024-03-08T14:34:50;21.65;;;14.88;;
84115;SDS011;74211;52.234;9.860;2024-03-08T14:39:56;23.23;;;16.10;;
84115;SDS011;74211;52.234;9.860;2024-03-08T14:42:26;29.60;;;17.85;;
84115;SDS011;74211;52.234;9.860;2024-03-08T14:44:57;25.40;;;17.00;;
84115;SDS011;74211;52.234;9.860;2024-03-08T14:47:29;22.73;;;15.98;;
84115;SDS011;74211;52.234;9.860;2024-03-08T14:50:01;23.20;;;16.10;;
84115;SDS011;74211;52.234;9.860;2024-03-08T14:52:34;25.00;;;16.00;;
84115;SDS011;74211;52.234;9.860;2024-03-08T14:55:07;25.15;;;17.33;;
84115;SDS011;74211;52.234;9.860;2024-03-08T14:57:41;30.33;;;18.33;;
84115;SDS011;74211;52.234;9.860;2024-03-08T15:00:13;26.40;;;14.98;;
84115;SDS011;74211;52.234;9.860;2024-03-08T15:02:56;28.42;;;17.40;;
84115;SDS011;74211;52.234;9.860;2024-03-08T15:05:26;25.33;;;16.27;;
84115;SDS011;74211;52.234;9.860;2024-03-08T15:07:59;27.30;;;16.92;;
84115;SDS011;74211;52.234;9.860;2024-03-08T15:10:38;24.33;;;15.45;;
84115;SDS011;74211;52.234;9.860;2024-03-08T15:13:11;26.05;;;15.32;;